Silver Lake, Michigan
Current Conditions -  °F | °C
As of 6:15 AM on Thursday 18 Dec 2014 (Local Time) from KLDM Reporting Station
Haze Haze  
Wind Chill: 26°   Ceiling: 1500
Heat Index: 31°   Visibility: 5mi
Dew Point: 28°   Wind: 5mph
Humidity: 88%   Direction: 350°N
Pressure: 30.21"   Gusts: NA
Location:  43.6851°N, 86.4584°W
Report Text: KLDM 181115Z AUTO 35004KT 5SM BR SCT010 BKN015 OVC021 M01/M02 A3021 RMK AO2 T10061023
Loading
Personal Weather Stations






























Interactive Weather Map New forecast layout! Learn more

10-Day Weather Forecast

Advertisements
Track Severe Weather on mobile